createdAt,value
2019-03-31T00:00:09.132Z,5.80
2019-03-31T00:02:38.984Z,5.60
2019-03-31T00:05:10.869Z,5.60
2019-03-31T00:07:41.822Z,5.60
2019-03-31T00:10:11.816Z,5.60
2019-03-31T00:12:42.980Z,5.70
2019-03-31T00:15:12.895Z,5.80
2019-03-31T00:17:42.763Z,5.90
2019-03-31T00:20:12.601Z,5.70
2019-03-31T00:22:42.508Z,5.50
2019-03-31T00:25:12.320Z,5.30
2019-03-31T00:27:42.364Z,5.30
2019-03-31T00:30:12.685Z,5.40
2019-03-31T00:32:42.893Z,5.40
2019-03-31T00:35:12.819Z,5.30
2019-03-31T00:37:42.669Z,5.30
2019-03-31T00:40:12.546Z,5.10
2019-03-31T00:42:42.425Z,5.00
2019-03-31T00:45:12.580Z,5.00
2019-03-31T00:47:42.461Z,4.90
2019-03-31T00:50:12.319Z,4.90
2019-03-31T00:52:42.199Z,4.90
2019-03-31T00:55:12.022Z,4.80
2019-03-31T00:57:41.921Z,4.80
2019-03-31T01:00:13.029Z,4.70
2019-03-31T01:02:42.900Z,4.70
2019-03-31T01:05:12.817Z,4.70
2019-03-31T01:07:42.969Z,4.70
2019-03-31T01:10:12.870Z,4.60
2019-03-31T01:12:42.739Z,4.50
2019-03-31T01:15:14.360Z,4.50
2019-03-31T01:17:43.031Z,4.60
2019-03-31T01:20:12.795Z,4.60
2019-03-31T01:22:42.724Z,4.50
2019-03-31T01:25:12.882Z,4.50
2019-03-31T01:27:42.741Z,4.50
2019-03-31T01:30:12.705Z,4.40
2019-03-31T01:32:43.575Z,4.40
2019-03-31T01:35:14.439Z,4.40
2019-03-31T01:37:44.379Z,4.30
2019-03-31T01:40:14.776Z,4.30
2019-03-31T01:42:45.691Z,4.20
2019-03-31T01:45:16.525Z,4.30
2019-03-31T01:47:48.424Z,4.30
2019-03-31T01:50:19.272Z,4.20
2019-03-31T01:52:49.057Z,4.30
2019-03-31T01:55:19.003Z,4.30
2019-03-31T01:57:48.899Z,4.40
2019-03-31T02:00:39.141Z,4.60
2019-03-31T02:03:08.976Z,4.40
2019-03-31T02:05:38.826Z,4.20
2019-03-31T02:08:08.690Z,4.00
2019-03-31T02:10:41.170Z,3.90
2019-03-31T02:13:14.061Z,3.80
2019-03-31T02:15:43.881Z,3.70
2019-03-31T02:18:13.761Z,3.60
2019-03-31T02:20:43.592Z,3.60
2019-03-31T02:23:14.412Z,3.70
2019-03-31T02:25:44.743Z,3.70
2019-03-31T02:28:14.815Z,3.60
2019-03-31T02:30:45.318Z,3.50
2019-03-31T02:33:15.204Z,3.50
2019-03-31T02:35:45.041Z,3.50
2019-03-31T02:38:14.933Z,3.60
2019-03-31T02:40:44.786Z,3.60
2019-03-31T02:43:15.138Z,3.40
2019-03-31T02:45:48.339Z,3.30
2019-03-31T02:48:18.209Z,3.20
2019-03-31T02:50:49.574Z,3.20
2019-03-31T02:53:18.307Z,3.30
2019-03-31T02:55:48.068Z,3.20
2019-03-31T02:58:19.058Z,3.30
2019-03-31T03:00:49.008Z,3.40
2019-03-31T03:03:19.581Z,3.70
2019-03-31T03:05:50.349Z,3.90
2019-03-31T03:08:20.281Z,3.90
2019-03-31T03:10:51.786Z,4.00
2019-03-31T03:13:20.540Z,4.10
2019-03-31T03:16:28.679Z,3.90
2019-03-31T03:18:58.523Z,3.90
2019-03-31T03:21:28.687Z,3.90
2019-03-31T03:23:58.533Z,4.00
2019-03-31T03:26:28.395Z,4.10
2019-03-31T03:28:58.288Z,4.10
2019-03-31T03:31:28.104Z,4.10
2019-03-31T03:33:59.961Z,3.90
2019-03-31T03:36:29.779Z,3.80
2019-03-31T03:39:01.679Z,3.90
2019-03-31T03:41:31.975Z,4.00
2019-03-31T03:44:02.797Z,4.00
2019-03-31T03:46:32.096Z,4.10
2019-03-31T03:49:02.039Z,4.00
2019-03-31T03:51:32.160Z,3.80
2019-03-31T03:54:02.271Z,3.80
2019-03-31T03:56:33.397Z,3.90
2019-03-31T03:59:03.303Z,3.90
2019-03-31T04:01:33.262Z,3.70
2019-03-31T04:04:04.149Z,3.50
2019-03-31T04:06:33.947Z,3.40
2019-03-31T04:09:04.347Z,3.30
2019-03-31T04:11:36.248Z,3.30
2019-03-31T04:14:06.199Z,3.30
2019-03-31T04:16:36.720Z,3.30
2019-03-31T04:19:06.616Z,3.20
2019-03-31T04:21:36.747Z,3.30
2019-03-31T04:24:06.637Z,3.40
2019-03-31T04:26:36.457Z,3.20
2019-03-31T04:29:06.698Z,3.10
2019-03-31T04:31:36.585Z,3.10
2019-03-31T04:34:06.534Z,3.00
2019-03-31T04:36:36.400Z,2.80
2019-03-31T04:39:07.728Z,2.60
2019-03-31T04:41:37.903Z,2.60
2019-03-31T04:44:08.121Z,2.60
2019-03-31T04:46:38.350Z,2.70
2019-03-31T04:49:08.206Z,2.70
2019-03-31T04:51:38.050Z,2.80
2019-03-31T04:54:08.016Z,2.90
2019-03-31T04:56:38.491Z,3.10
2019-03-31T04:59:09.306Z,3.00
2019-03-31T05:01:40.187Z,2.90
2019-03-31T05:04:10.078Z,2.80
2019-03-31T05:06:39.885Z,2.80
2019-03-31T05:09:09.809Z,3.00
2019-03-31T05:11:39.955Z,3.00
2019-03-31T05:14:09.834Z,2.90
2019-03-31T05:16:39.673Z,2.90
2019-03-31T05:19:09.549Z,2.80
2019-03-31T05:21:39.703Z,2.70
2019-03-31T05:24:09.798Z,2.70
2019-03-31T05:26:39.633Z,2.60
2019-03-31T05:29:09.854Z,2.50
2019-03-31T05:31:40.001Z,2.50
2019-03-31T05:34:18.921Z,2.50
2019-03-31T05:36:40.410Z,2.60
2019-03-31T05:39:10.305Z,2.80
2019-03-31T05:41:40.448Z,3.00
2019-03-31T05:44:10.342Z,3.20
2019-03-31T05:46:44.272Z,3.40
2019-03-31T05:49:14.163Z,3.50
2019-03-31T05:51:43.998Z,3.60
2019-03-31T05:54:13.888Z,3.70
2019-03-31T05:56:44.113Z,3.70
2019-03-31T05:59:14.062Z,3.80
2019-03-31T06:01:44.968Z,3.90
2019-03-31T06:04:14.899Z,4.00
2019-03-31T06:06:45.175Z,4.20
2019-03-31T06:09:14.996Z,4.30
2019-03-31T06:11:44.845Z,4.40
2019-03-31T06:14:14.725Z,4.50
2019-03-31T06:16:44.879Z,4.60
2019-03-31T06:19:14.769Z,4.90
2019-03-31T06:21:45.021Z,5.20
2019-03-31T06:24:15.237Z,5.40
2019-03-31T06:26:47.114Z,5.60
2019-03-31T06:29:17.998Z,5.90
2019-03-31T06:31:47.823Z,6.40
2019-03-31T06:34:17.705Z,7.00
2019-03-31T06:36:47.846Z,7.40
2019-03-31T06:39:17.760Z,7.80
2019-03-31T06:41:47.593Z,8.10
2019-03-31T06:44:17.923Z,8.50
2019-03-31T06:46:47.842Z,8.70
2019-03-31T06:49:17.708Z,9.00
2019-03-31T06:51:47.547Z,9.20
2019-03-31T06:54:17.444Z,9.70
2019-03-31T06:56:47.344Z,10.10
2019-03-31T06:59:17.223Z,10.50
2019-03-31T07:01:47.366Z,10.70
2019-03-31T07:04:17.460Z,10.80
2019-03-31T07:06:47.342Z,10.90
2019-03-31T07:09:17.257Z,11.20
2019-03-31T07:11:47.093Z,11.50
2019-03-31T07:14:17.008Z,11.10
2019-03-31T07:16:46.916Z,11.40
2019-03-31T07:19:17.325Z,11.90
2019-03-31T07:21:48.097Z,12.40
2019-03-31T07:24:17.945Z,12.60
2019-03-31T07:26:48.861Z,13.00
2019-03-31T07:29:17.785Z,13.30
2019-03-31T07:31:47.697Z,13.70
2019-03-31T07:34:17.526Z,14.00
2019-03-31T07:36:47.372Z,14.20
2019-03-31T07:39:17.636Z,14.30
2019-03-31T07:41:47.711Z,14.50
2019-03-31T07:44:17.766Z,14.00
2019-03-31T07:46:50.998Z,14.50
2019-03-31T07:49:23.153Z,14.60
2019-03-31T07:51:52.987Z,15.00
2019-03-31T07:54:23.134Z,15.20
2019-03-31T07:56:53.645Z,15.40
2019-03-31T07:59:23.846Z,15.70
2019-03-31T08:01:54.676Z,15.00
2019-03-31T08:04:24.822Z,15.40
2019-03-31T08:06:56.671Z,15.40
2019-03-31T08:09:26.597Z,16.20
2019-03-31T08:11:56.553Z,16.00
2019-03-31T08:14:26.379Z,15.70
2019-03-31T08:16:56.190Z,16.30
2019-03-31T08:19:28.060Z,16.80
2019-03-31T08:21:57.912Z,17.10
2019-03-31T08:24:28.047Z,17.00
2019-03-31T08:26:57.933Z,17.20
2019-03-31T08:29:28.136Z,17.30
2019-03-31T08:31:58.336Z,18.00
2019-03-31T08:38:03.446Z,16.80
2019-03-31T08:40:33.344Z,18.60
2019-03-31T08:43:03.376Z,18.70
2019-03-31T08:45:51.944Z,18.70
2019-03-31T08:48:27.795Z,18.70
2019-03-31T08:51:13.841Z,18.10
2019-03-31T08:53:43.783Z,18.30
2019-03-31T08:56:19.487Z,19.00
2019-03-31T08:58:49.314Z,18.20
2019-03-31T09:01:19.253Z,18.40
2019-03-31T09:03:49.175Z,18.90
2019-03-31T09:06:29.140Z,19.90
2019-03-31T09:08:59.033Z,20.50
2019-03-31T09:11:30.901Z,20.30
2019-03-31T09:14:00.806Z,21.20
2019-03-31T09:16:30.693Z,21.60
2019-03-31T09:19:00.534Z,21.80
2019-03-31T09:21:30.467Z,22.50
2019-03-31T09:24:01.412Z,22.90
2019-03-31T09:26:31.402Z,22.30
2019-03-31T09:29:01.306Z,22.90
2019-03-31T09:31:31.330Z,22.70
2019-03-31T09:34:02.256Z,23.10
2019-03-31T09:36:32.186Z,22.40
2019-03-31T09:39:05.466Z,22.30
2019-03-31T09:41:35.409Z,22.40
2019-03-31T09:44:07.330Z,22.80
2019-03-31T09:46:37.190Z,22.50
2019-03-31T09:49:07.046Z,22.70
2019-03-31T09:51:36.917Z,23.00
2019-03-31T09:54:06.791Z,23.10
2019-03-31T09:56:37.679Z,22.50
2019-03-31T09:59:18.453Z,22.00
2019-03-31T10:01:48.277Z,22.60
2019-03-31T10:04:18.445Z,23.20
2019-03-31T10:06:57.119Z,23.50
2019-03-31T10:09:26.903Z,23.50
2019-03-31T10:11:56.766Z,23.70
2019-03-31T10:14:27.741Z,23.30
2019-03-31T10:16:57.639Z,23.10
2019-03-31T10:19:32.701Z,23.20
2019-03-31T10:22:02.573Z,23.60
2019-03-31T10:24:32.523Z,22.50
2019-03-31T10:27:03.415Z,22.40
2019-03-31T10:29:34.172Z,23.00
2019-03-31T10:32:03.108Z,22.90
2019-03-31T10:34:32.900Z,22.60
2019-03-31T10:37:03.836Z,21.70
2019-03-31T10:39:38.659Z,22.10
2019-03-31T10:42:08.509Z,21.80
2019-03-31T10:44:38.381Z,21.80
2019-03-31T10:47:14.121Z,22.30
2019-03-31T10:49:44.075Z,22.20
2019-03-31T10:52:13.955Z,21.70
2019-03-31T10:54:44.919Z,21.50
2019-03-31T10:57:15.848Z,22.00
2019-03-31T10:59:46.793Z,22.00
2019-03-31T11:02:22.823Z,21.80
2019-03-31T11:04:54.682Z,21.70
2019-03-31T11:07:25.605Z,21.40
2019-03-31T11:09:56.473Z,22.00
2019-03-31T11:12:32.647Z,22.40
2019-03-31T11:15:02.530Z,22.30
2019-03-31T11:17:32.670Z,22.10
2019-03-31T11:20:03.830Z,22.20
2019-03-31T11:22:40.305Z,22.20
2019-03-31T11:25:20.779Z,22.40
2019-03-31T11:27:43.740Z,22.40
2019-03-31T11:30:11.088Z,21.80
2019-03-31T11:32:41.963Z,21.90
2019-03-31T11:35:13.110Z,22.50
2019-03-31T11:37:43.005Z,22.60
2019-03-31T11:40:13.868Z,22.00
2019-03-31T11:42:43.761Z,22.20
2019-03-31T11:45:13.765Z,21.90
2019-03-31T11:47:43.643Z,22.40
2019-03-31T11:50:17.178Z,22.30
2019-03-31T11:52:47.197Z,22.70
2019-03-31T11:55:17.039Z,22.90
2019-03-31T11:57:46.907Z,23.10
2019-03-31T12:00:28.546Z,23.40
2019-03-31T12:03:03.768Z,23.30
2019-03-31T12:05:35.599Z,23.20
2019-03-31T12:08:09.229Z,22.80
2019-03-31T12:10:41.015Z,22.70
2019-03-31T12:13:10.911Z,22.70
2019-03-31T12:15:41.017Z,23.10
2019-03-31T12:18:11.866Z,22.50
2019-03-31T12:24:16.830Z,23.40
2019-03-31T12:26:50.547Z,23.50
2019-03-31T12:29:20.682Z,22.80
2019-03-31T12:31:50.575Z,22.50
2019-03-31T12:34:22.527Z,23.00
2019-03-31T12:36:53.460Z,22.90
2019-03-31T12:43:03.745Z,23.40
2019-03-31T12:45:33.903Z,22.80
2019-03-31T12:48:06.939Z,23.00
2019-03-31T12:50:36.880Z,23.30
2019-03-31T12:53:21.827Z,23.00
2019-03-31T12:59:02.528Z,23.20
2019-03-31T13:02:05.607Z,22.30
2019-03-31T13:04:45.470Z,22.00
2019-03-31T13:07:16.583Z,22.00
2019-03-31T13:09:51.772Z,22.20
2019-03-31T13:12:27.586Z,22.00
2019-03-31T13:15:30.678Z,21.70
2019-03-31T13:18:28.021Z,21.10
2019-03-31T13:21:06.390Z,21.10
2019-03-31T13:23:37.311Z,20.50
2019-03-31T13:26:09.505Z,21.10
2019-03-31T13:28:46.400Z,21.90
2019-03-31T13:31:29.773Z,21.70
2019-03-31T13:33:59.677Z,22.00
2019-03-31T13:36:45.674Z,22.00
2019-03-31T13:42:58.254Z,22.20
2019-03-31T13:45:33.222Z,21.70
2019-03-31T13:48:05.124Z,21.50
2019-03-31T13:53:44.831Z,21.20
2019-03-31T13:56:17.150Z,21.20
2019-03-31T13:59:09.103Z,21.30
2019-03-31T14:01:44.159Z,21.70
2019-03-31T14:04:51.756Z,21.30
2019-03-31T14:07:18.826Z,21.10
2019-03-31T14:09:50.684Z,21.70
2019-03-31T14:12:24.860Z,22.10
2019-03-31T14:15:18.943Z,22.10
2019-03-31T14:17:52.515Z,22.10
2019-03-31T14:20:33.306Z,22.10
2019-03-31T14:23:45.982Z,21.80
2019-03-31T14:26:16.939Z,21.90
2019-03-31T14:28:47.883Z,22.30
2019-03-31T14:31:38.895Z,22.50
2019-03-31T14:34:31.043Z,21.70
2019-03-31T14:37:18.863Z,21.40
2019-03-31T14:40:04.012Z,22.00
2019-03-31T14:43:08.560Z,22.20
2019-03-31T14:46:01.600Z,22.20
2019-03-31T14:48:46.589Z,21.40
2019-03-31T14:51:19.656Z,21.10
2019-03-31T14:53:59.864Z,21.20
2019-03-31T14:57:03.031Z,21.20
2019-03-31T14:59:34.198Z,21.00
2019-03-31T15:02:06.020Z,20.80
2019-03-31T15:04:36.281Z,21.10
2019-03-31T15:07:06.266Z,21.00
2019-03-31T15:09:36.318Z,20.80
2019-03-31T15:12:06.337Z,20.80
2019-03-31T15:14:36.452Z,21.20
2019-03-31T15:17:06.465Z,20.90
2019-03-31T15:19:36.495Z,20.50
2019-03-31T15:22:06.639Z,20.40
2019-03-31T15:24:36.517Z,20.00
2019-03-31T15:27:08.707Z,20.10
2019-03-31T15:29:38.608Z,20.10
2019-03-31T15:32:08.551Z,20.00
2019-03-31T15:34:38.443Z,20.00
2019-03-31T15:37:08.343Z,20.20
2019-03-31T15:39:38.172Z,20.50
2019-03-31T15:42:08.068Z,20.70
2019-03-31T15:44:37.889Z,20.00
2019-03-31T15:47:08.719Z,19.70
2019-03-31T15:49:38.539Z,19.60
2019-03-31T15:52:09.467Z,19.40
2019-03-31T15:54:39.289Z,19.40
2019-03-31T15:57:09.230Z,19.70
2019-03-31T15:59:38.836Z,19.60
2019-03-31T16:02:09.421Z,19.10
2019-03-31T16:04:39.486Z,19.10
2019-03-31T16:07:09.365Z,19.00
2019-03-31T16:09:38.103Z,19.10
2019-03-31T16:12:06.894Z,19.20
2019-03-31T16:14:36.028Z,19.00
2019-03-31T16:17:05.771Z,19.00
2019-03-31T16:19:34.638Z,18.90
2019-03-31T16:22:12.523Z,18.80
2019-03-31T16:24:44.408Z,18.80
2019-03-31T16:27:13.290Z,18.70
2019-03-31T16:29:42.076Z,18.40
2019-03-31T16:32:10.919Z,18.30
2019-03-31T16:34:41.813Z,18.00
2019-03-31T16:37:13.672Z,17.80
2019-03-31T16:39:44.506Z,17.70
2019-03-31T16:42:14.311Z,17.80
2019-03-31T16:44:57.525Z,17.80
2019-03-31T16:47:14.037Z,17.60
2019-03-31T16:49:42.813Z,17.70
2019-03-31T16:52:12.645Z,17.70
2019-03-31T16:54:42.438Z,17.70
2019-03-31T16:57:11.311Z,17.50
2019-03-31T16:59:40.143Z,17.20
2019-03-31T17:02:09.665Z,17.00
2019-03-31T17:04:38.511Z,16.80
2019-03-31T17:07:07.404Z,16.60
2019-03-31T17:09:36.396Z,16.60
2019-03-31T17:12:05.236Z,16.70
2019-03-31T17:14:33.975Z,16.50
2019-03-31T17:17:03.193Z,16.40
2019-03-31T17:19:32.133Z,16.30
2019-03-31T17:22:00.952Z,16.10
2019-03-31T17:24:29.861Z,16.10
2019-03-31T17:26:58.781Z,16.10
2019-03-31T17:29:32.242Z,16.00
2019-03-31T17:32:01.119Z,16.10
2019-03-31T17:34:29.909Z,16.10
2019-03-31T17:36:58.814Z,15.90
2019-03-31T17:39:27.688Z,15.60
2019-03-31T17:41:56.430Z,15.50
2019-03-31T17:44:26.288Z,15.40
2019-03-31T17:46:56.073Z,15.20
2019-03-31T17:49:28.471Z,15.10
2019-03-31T17:51:57.258Z,15.10
2019-03-31T17:54:26.050Z,15.00
2019-03-31T17:56:54.955Z,14.90
2019-03-31T17:59:23.763Z,14.70
2019-03-31T18:01:52.594Z,14.60
2019-03-31T18:04:21.379Z,14.50
2019-03-31T18:06:50.167Z,14.40
2019-03-31T18:09:18.954Z,14.30
2019-03-31T18:11:47.787Z,14.30
2019-03-31T18:14:16.608Z,14.20
2019-03-31T18:16:45.306Z,14.00
2019-03-31T18:19:15.210Z,13.90
2019-03-31T18:21:44.020Z,13.80
2019-03-31T18:24:12.845Z,13.80
2019-03-31T18:26:41.609Z,13.70
2019-03-31T18:29:10.461Z,13.60
2019-03-31T18:31:39.273Z,13.50
2019-03-31T18:34:09.077Z,13.50
2019-03-31T18:36:37.885Z,13.40
2019-03-31T18:39:08.472Z,13.30
2019-03-31T18:41:37.279Z,13.20
2019-03-31T18:44:12.674Z,13.10
2019-03-31T18:46:58.805Z,12.90
2019-03-31T18:49:27.632Z,12.80
2019-03-31T18:51:58.461Z,12.70
2019-03-31T18:54:52.371Z,12.60
2019-03-31T18:57:35.802Z,12.50
2019-03-31T19:00:14.798Z,12.40
2019-03-31T19:02:52.794Z,12.30
2019-03-31T19:05:40.830Z,12.30
2019-03-31T19:08:32.458Z,12.20
2019-03-31T19:11:14.749Z,12.10
2019-03-31T19:13:58.644Z,11.90
2019-03-31T19:17:02.720Z,11.80
2019-03-31T19:19:38.138Z,11.70
2019-03-31T19:22:24.566Z,11.60
2019-03-31T19:25:12.457Z,11.50
2019-03-31T19:28:06.205Z,11.40
2019-03-31T19:30:47.833Z,11.30
2019-03-31T19:33:30.475Z,11.30
2019-03-31T19:36:27.953Z,11.30
2019-03-31T19:39:19.154Z,11.10
2019-03-31T19:42:22.115Z,11.00
2019-03-31T19:45:17.864Z,10.90
2019-03-31T19:47:52.087Z,10.80
2019-03-31T19:50:38.778Z,10.70
2019-03-31T19:53:26.497Z,10.70
2019-03-31T19:56:11.371Z,10.70
2019-03-31T19:59:05.161Z,10.60
2019-03-31T20:01:49.797Z,10.40
2019-03-31T20:04:43.435Z,10.50
2019-03-31T20:07:36.541Z,10.60
2019-03-31T20:10:33.197Z,10.50
2019-03-31T20:13:18.245Z,10.40
2019-03-31T20:16:18.729Z,10.30
2019-03-31T20:19:06.691Z,10.20
2019-03-31T20:21:53.052Z,10.30
2019-03-31T20:24:46.843Z,10.20
2019-03-31T20:27:35.849Z,10.10
2019-03-31T20:30:12.361Z,10.10
2019-03-31T20:33:18.449Z,10.00
2019-03-31T20:36:01.082Z,10.00
2019-03-31T20:39:24.136Z,10.00
2019-03-31T20:41:58.369Z,9.90
2019-03-31T20:44:27.175Z,10.10
2019-03-31T20:46:56.062Z,10.10
2019-03-31T20:49:25.107Z,10.10
2019-03-31T20:51:53.944Z,10.10
2019-03-31T20:54:22.827Z,10.00
2019-03-31T20:56:51.584Z,10.00
2019-03-31T20:59:20.438Z,10.10
2019-03-31T21:01:49.524Z,10.10
2019-03-31T21:04:18.525Z,10.00
2019-03-31T21:06:47.355Z,9.90
2019-03-31T21:09:16.132Z,9.80
2019-03-31T21:11:44.928Z,9.60
2019-03-31T21:14:13.704Z,9.40
2019-03-31T21:16:42.519Z,9.30
2019-03-31T21:19:11.617Z,9.30
2019-03-31T21:21:40.434Z,9.30
2019-03-31T21:24:10.188Z,9.40
2019-03-31T21:26:39.968Z,9.50
2019-03-31T21:29:11.010Z,9.40
2019-03-31T21:31:40.353Z,9.40
2019-03-31T21:34:10.872Z,9.30
2019-03-31T21:36:39.858Z,9.30
2019-03-31T21:39:08.653Z,9.20
2019-03-31T21:41:37.464Z,9.10
2019-03-31T21:44:06.539Z,9.10
2019-03-31T21:46:35.492Z,9.00
2019-03-31T21:49:04.323Z,9.10
2019-03-31T21:51:33.113Z,9.10
2019-03-31T21:54:10.348Z,9.00
2019-03-31T21:56:37.607Z,9.00
2019-03-31T21:59:07.228Z,8.90
2019-03-31T22:01:36.040Z,8.90
2019-03-31T22:04:06.874Z,8.80
2019-03-31T22:06:35.693Z,8.80
2019-03-31T22:09:06.324Z,8.80
2019-03-31T22:11:35.095Z,8.80
2019-03-31T22:14:04.065Z,8.70
2019-03-31T22:16:33.799Z,8.70
2019-03-31T22:19:02.571Z,8.70
2019-03-31T22:21:31.389Z,8.60
2019-03-31T22:24:01.146Z,8.50
2019-03-31T22:26:29.993Z,8.40
2019-03-31T22:28:59.116Z,8.40
2019-03-31T22:31:27.983Z,8.40
2019-03-31T22:33:57.230Z,8.40
2019-03-31T22:36:28.244Z,8.30
2019-03-31T22:38:57.008Z,8.40
2019-03-31T22:41:25.749Z,8.40
2019-03-31T22:43:54.544Z,8.30
2019-03-31T22:46:23.717Z,8.30
2019-03-31T22:48:53.223Z,8.30
2019-03-31T22:51:22.958Z,8.20
2019-03-31T22:53:52.036Z,8.30
2019-03-31T22:56:20.923Z,8.20
2019-03-31T22:58:49.616Z,8.30
2019-03-31T23:01:18.815Z,8.20
2019-03-31T23:03:47.611Z,8.20
2019-03-31T23:06:16.408Z,8.10
2019-03-31T23:08:45.186Z,7.90
2019-03-31T23:11:13.989Z,7.90
2019-03-31T23:13:42.763Z,7.90
2019-03-31T23:16:15.807Z,7.80
2019-03-31T23:18:58.348Z,7.80
2019-03-31T23:21:37.952Z,7.80
2019-03-31T23:24:06.792Z,7.80
2019-03-31T23:26:35.703Z,7.70
2019-03-31T23:29:11.328Z,7.70
2019-03-31T23:31:41.064Z,7.70
2019-03-31T23:34:09.880Z,7.70
2019-03-31T23:36:38.632Z,7.70
2019-03-31T23:39:07.769Z,7.70
2019-03-31T23:41:36.514Z,7.70
2019-03-31T23:44:05.873Z,7.60
2019-03-31T23:46:34.838Z,7.70
2019-03-31T23:49:03.718Z,7.70
2019-03-31T23:51:33.099Z,7.70
2019-03-31T23:54:01.869Z,7.70
2019-03-31T23:56:30.649Z,7.60
2019-03-31T23:58:59.687Z,7.60
